Time;durP1;ratioP1;P1;durP2;ratioP2;P2;SDS_P1;SDS_P2;PMS_P1;PMS_P2;Temp;Humidity;BMP_temperature;BMP_pressure;BME280_temperature;BME280_humidity;BME280_pressure;Samples;Min_cycle;Max_cycle;Signal;HPM_P1;HPM_P2
2021/07/12 00:00:12;;;;;;;9.40;5.18;;;;;;;;;;5096114;28;20040;-72
2021/07/12 00:02:38;;;;;;;5.35;4.40;;;;;;;;;;5096561;28;20044;-71
2021/07/12 00:05:05;;;;;;;6.35;4.53;;;;;;;;;;5096351;28;20051;-71
2021/07/12 00:07:32;;;;;;;5.43;3.90;;;;;;;;;;5096367;28;20123;-72
2021/07/12 00:09:58;;;;;;;6.43;4.20;;;;;;;;;;5096229;28;20016;-71
2021/07/12 00:12:23;;;;;;;5.78;4.20;;;;;;;;;;5095965;28;20123;-71
2021/07/12 00:14:50;;;;;;;8.20;4.75;;;;;;;;;;5096375;28;20106;-71
2021/07/12 00:17:16;;;;;;;5.25;4.28;;;;;;;;;;5095834;28;20023;-72
2021/07/12 00:19:42;;;;;;;4.95;4.13;;;;;;;;;;5096331;28;20020;-71
2021/07/12 00:22:08;;;;;;;6.53;4.50;;;;;;;;;;5096177;28;20073;-72
2021/07/12 00:24:34;;;;;;;6.10;4.57;;;;;;;;;;5096267;28;20110;-71
2021/07/12 00:27:00;;;;;;;7.82;4.90;;;;;;;;;;5096017;28;20024;-72
2021/07/12 00:29:26;;;;;;;8.90;4.75;;;;;;;;;;5095657;28;20055;-71
2021/07/12 00:31:51;;;;;;;8.57;5.13;;;;;;;;;;5094976;28;20028;-71
2021/07/12 00:34:18;;;;;;;6.00;4.93;;;;;;;;;;5095763;28;20069;-71
2021/07/12 00:36:43;;;;;;;8.20;4.57;;;;;;;;;;5095997;28;20024;-72
2021/07/12 00:39:10;;;;;;;7.63;5.28;;;;;;;;;;5095438;28;20102;-72
2021/07/12 00:41:37;;;;;;;5.85;4.75;;;;;;;;;;5097565;28;20023;-71
2021/07/12 00:44:04;;;;;;;7.25;5.45;;;;;;;;;;5097224;28;20507;-71
2021/07/12 00:46:30;;;;;;;6.72;5.20;;;;;;;;;;5095562;28;20498;-71
2021/07/12 00:48:56;;;;;;;7.22;5.78;;;;;;;;;;5094093;28;20016;-69
2021/07/12 00:51:22;;;;;;;6.68;5.50;;;;;;;;;;5095344;28;20060;-71
2021/07/12 00:53:49;;;;;;;7.35;4.90;;;;;;;;;;5095481;28;20016;-71
2021/07/12 00:56:15;;;;;;;7.55;5.07;;;;;;;;;;5095532;28;20093;-71
2021/07/12 00:58:40;;;;;;;6.63;4.80;;;;;;;;;;5095566;28;20099;-71
2021/07/12 01:01:07;;;;;;;8.52;5.53;;;;;;;;;;5095238;28;20040;-71
2021/07/12 01:03:33;;;;;;;8.30;5.65;;;;;;;;;;5095303;28;20031;-71
2021/07/12 01:06:00;;;;;;;8.48;6.15;;;;;;;;;;5095397;28;20368;-71
2021/07/12 01:08:25;;;;;;;7.55;5.45;;;;;;;;;;5095208;28;20523;-71
2021/07/12 01:10:59;;;;;;;6.32;5.07;;;;;;;;;;5094944;28;20044;-71
2021/07/12 01:13:44;;;;;;;6.95;5.28;;;;;;;;;;5094763;28;20027;-71
2021/07/12 01:16:22;;;;;;;6.78;5.03;;;;;;;;;;5094832;28;20020;-71
2021/07/12 01:18:52;;;;;;;7.90;5.68;;;;;;;;;;5095053;28;20020;-71
2021/07/12 01:21:37;;;;;;;8.27;5.53;;;;;;;;;;5094594;28;20439;-71
2021/07/12 01:24:21;;;;;;;10.00;6.35;;;;;;;;;;5094740;28;20024;-71
2021/07/12 01:27:00;;;;;;;6.65;5.72;;;;;;;;;;5094907;28;20028;-71
2021/07/12 01:29:37;;;;;;;6.72;5.70;;;;;;;;;;5094550;28;20020;-71
2021/07/12 01:32:12;;;;;;;7.68;6.60;;;;;;;;;;5093543;28;20476;-71
2021/07/12 01:34:44;;;;;;;9.23;5.85;;;;;;;;;;5094919;28;20031;-71
2021/07/12 01:37:28;;;;;;;6.43;5.38;;;;;;;;;;5094355;28;20054;-71
2021/07/12 01:40:00;;;;;;;12.38;6.55;;;;;;;;;;5094747;28;20062;-71
2021/07/12 01:42:29;;;;;;;8.68;5.63;;;;;;;;;;5094525;28;20032;-71
2021/07/12 01:45:14;;;;;;;6.35;5.43;;;;;;;;;;5094566;28;20016;-71
2021/07/12 01:47:52;;;;;;;15.48;5.72;;;;;;;;;;5094650;28;20093;-71
2021/07/12 01:50:22;;;;;;;7.18;5.50;;;;;;;;;;5094092;28;20086;-71
2021/07/12 01:52:55;;;;;;;9.00;5.65;;;;;;;;;;5094401;28;20075;-71
2021/07/12 01:55:32;;;;;;;9.68;5.68;;;;;;;;;;5094079;28;20108;-71
2021/07/12 01:58:12;;;;;;;9.10;5.40;;;;;;;;;;5094088;28;20024;-70
2021/07/12 02:00:38;;;;;;;;;;;;;;;;;;5094567;28;20412;-72
2021/07/12 02:03:05;;;;;;;8.50;5.32;;;;;;;;;;5094242;28;19950;-71
2021/07/12 02:05:33;;;;;;;9.63;5.30;;;;;;;;;;5094214;28;20020;-72
2021/07/12 02:08:01;;;;;;;7.57;6.00;;;;;;;;;;5094042;28;20047;-71
2021/07/12 02:10:28;;;;;;;8.50;5.30;;;;;;;;;;5094106;28;20374;-72
2021/07/12 02:12:55;;;;;;;6.78;4.93;;;;;;;;;;5093752;28;20032;-72
2021/07/12 02:15:20;;;;;;;9.32;5.47;;;;;;;;;;5093889;28;20020;-72
2021/07/12 02:17:49;;;;;;;7.43;5.25;;;;;;;;;;5094046;28;20031;-72
2021/07/12 02:20:16;;;;;;;6.40;4.40;;;;;;;;;;5093958;28;20117;-72
2021/07/12 02:22:42;;;;;;;7.55;4.55;;;;;;;;;;5094069;28;20020;-72
2021/07/12 02:25:09;;;;;;;6.97;4.85;;;;;;;;;;5093403;28;20468;-73
2021/07/12 02:27:35;;;;;;;6.10;4.55;;;;;;;;;;5092471;28;20020;-72
2021/07/12 02:30:03;;;;;;;20.13;5.72;;;;;;;;;;5093805;28;20064;-72
2021/07/12 02:32:29;;;;;;;8.35;4.63;;;;;;;;;;5093582;28;20161;-72
2021/07/12 02:34:56;;;;;;;6.43;4.50;;;;;;;;;;5093643;28;20023;-72
2021/07/12 02:37:21;;;;;;;5.55;3.88;;;;;;;;;;5093284;28;20016;-72
2021/07/12 02:39:49;;;;;;;4.80;3.50;;;;;;;;;;5093800;28;20021;-72
2021/07/12 02:42:14;;;;;;;5.40;3.85;;;;;;;;;;5093439;28;20023;-72
2021/07/12 02:44:42;;;;;;;7.05;3.88;;;;;;;;;;5093465;28;20476;-72
2021/07/12 02:47:08;;;;;;;8.35;3.83;;;;;;;;;;5093303;28;20032;-72
2021/07/12 02:49:34;;;;;;;6.57;4.00;;;;;;;;;;5093309;28;20362;-72
2021/07/12 02:52:01;;;;;;;6.57;4.28;;;;;;;;;;5093028;28;20388;-72
2021/07/12 02:54:28;;;;;;;5.18;3.78;;;;;;;;;;5090430;28;20546;-72
2021/07/12 02:56:55;;;;;;;11.50;3.90;;;;;;;;;;5093431;28;20020;-72
2021/07/12 02:59:21;;;;;;;8.65;3.83;;;;;;;;;;5092939;28;20043;-71
2021/07/12 03:01:48;;;;;;;4.05;3.42;;;;;;;;;;5093140;28;20047;-72
2021/07/12 03:04:14;;;;;;;3.83;3.42;;;;;;;;;;5093092;28;20469;-72
2021/07/12 03:06:43;;;;;;;4.60;3.30;;;;;;;;;;5094857;28;20012;-72
2021/07/12 03:09:11;;;;;;;5.80;3.53;;;;;;;;;;5093705;28;20111;-72
2021/07/12 03:11:43;;;;;;;4.72;3.50;;;;;;;;;;5092992;28;20797;-72
2021/07/12 03:14:16;;;;;;;4.00;3.30;;;;;;;;;;5092950;28;20425;-72
2021/07/12 03:16:43;;;;;;;5.45;3.30;;;;;;;;;;5093120;28;20062;-72
2021/07/12 03:19:16;;;;;;;5.20;3.70;;;;;;;;;;5092742;28;20020;-73
2021/07/12 03:21:45;;;;;;;8.48;3.67;;;;;;;;;;5093204;28;20020;-72
2021/07/12 03:24:11;;;;;;;5.05;3.50;;;;;;;;;;5093127;28;20024;-72
2021/07/12 03:26:45;;;;;;;8.32;3.60;;;;;;;;;;5092967;28;20032;-72
2021/07/12 03:29:12;;;;;;;7.22;3.83;;;;;;;;;;5092632;28;20048;-72
2021/07/12 03:31:40;;;;;;;4.57;3.13;;;;;;;;;;5093278;28;20060;-72
2021/07/12 03:34:07;;;;;;;3.97;3.20;;;;;;;;;;5092700;28;20020;-72
2021/07/12 03:36:33;;;;;;;4.47;3.58;;;;;;;;;;5092850;28;20024;-72
2021/07/12 03:39:00;;;;;;;4.28;3.65;;;;;;;;;;5092754;28;20056;-72
2021/07/12 03:41:26;;;;;;;4.78;2.97;;;;;;;;;;5092485;28;20019;-72
2021/07/12 03:43:52;;;;;;;5.05;3.13;;;;;;;;;;5092776;28;20020;-72
2021/07/12 03:46:18;;;;;;;6.93;3.90;;;;;;;;;;5092688;28;20024;-72
2021/07/12 03:48:44;;;;;;;3.72;2.95;;;;;;;;;;5092595;28;20020;-72
2021/07/12 03:51:19;;;;;;;6.90;3.40;;;;;;;;;;5092547;28;20012;-72
2021/07/12 03:53:46;;;;;;;6.80;2.80;;;;;;;;;;5092686;28;20024;-71
2021/07/12 03:56:12;;;;;;;7.43;3.13;;;;;;;;;;5092608;28;20022;-72
2021/07/12 03:58:39;;;;;;;4.60;3.55;;;;;;;;;;5092926;28;20028;-72
2021/07/12 04:01:05;;;;;;;5.43;3.00;;;;;;;;;;5092250;28;20044;-72
2021/07/12 04:03:31;;;;;;;5.20;3.58;;;;;;;;;;5091386;28;20016;-72
2021/07/12 04:05:58;;;;;;;4.28;3.13;;;;;;;;;;5095083;28;20538;-72
2021/07/12 04:08:24;;;;;;;3.85;3.45;;;;;;;;;;5096536;28;20055;-71
2021/07/12 04:10:50;;;;;;;5.35;3.33;;;;;;;;;;5096389;28;20381;-72
2021/07/12 04:13:16;;;;;;;4.55;3.15;;;;;;;;;;5095861;28;20027;-72
2021/07/12 04:15:43;;;;;;;4.35;3.17;;;;;;;;;;5096121;28;20020;-72
2021/07/12 04:18:09;;;;;;;4.63;2.50;;;;;;;;;;5096262;28;20480;-72
2021/07/12 04:20:36;;;;;;;4.35;3.53;;;;;;;;;;5096170;28;20008;-73
2021/07/12 04:23:02;;;;;;;3.65;2.88;;;;;;;;;;5095697;28;20150;-72
2021/07/12 04:25:28;;;;;;;6.75;3.30;;;;;;;;;;5095161;28;20119;-73
2021/07/12 04:27:56;;;;;;;4.97;3.15;;;;;;;;;;5096139;28;20016;-73
2021/07/12 04:30:23;;;;;;;4.40;3.47;;;;;;;;;;5096017;28;20016;-72
2021/07/12 04:32:49;;;;;;;4.90;3.53;;;;;;;;;;5094684;28;20024;-72
2021/07/12 04:35:15;;;;;;;6.05;3.30;;;;;;;;;;5095604;28;20404;-71
2021/07/12 04:37:41;;;;;;;7.63;3.20;;;;;;;;;;5095761;28;20016;-72
2021/07/12 04:40:08;;;;;;;5.45;3.78;;;;;;;;;;5095775;28;20020;-72
2021/07/12 04:42:34;;;;;;;8.52;3.88;;;;;;;;;;5095954;28;20073;-73
2021/07/12 04:45:02;;;;;;;5.95;4.18;;;;;;;;;;5095722;28;20044;-72
2021/07/12 04:47:27;;;;;;;5.25;3.65;;;;;;;;;;5095557;28;20422;-73
2021/07/12 04:49:53;;;;;;;7.45;3.95;;;;;;;;;;5095790;28;20023;-70
2021/07/12 04:52:19;;;;;;;5.72;4.13;;;;;;;;;;5095530;28;20085;-72
2021/07/12 04:54:45;;;;;;;5.80;3.80;;;;;;;;;;5095846;28;20024;-71
2021/07/12 04:57:12;;;;;;;5.15;3.53;;;;;;;;;;5095334;28;20411;-71
2021/07/12 04:59:39;;;;;;;6.38;3.78;;;;;;;;;;5095179;28;20042;-72
2021/07/12 05:02:05;;;;;;;6.32;3.83;;;;;;;;;;5095324;28;20020;-71
2021/07/12 05:04:32;;;;;;;6.28;4.40;;;;;;;;;;5095691;28;20027;-71
2021/07/12 05:06:59;;;;;;;6.10;4.28;;;;;;;;;;5095272;28;20027;-71
2021/07/12 05:09:25;;;;;;;6.82;3.63;;;;;;;;;;5093525;28;20437;-71
2021/07/12 05:11:56;;;;;;;7.80;4.78;;;;;;;;;;5095649;28;20032;-71
2021/07/12 05:14:21;;;;;;;6.80;4.20;;;;;;;;;;5095273;28;20024;-71
2021/07/12 05:16:47;;;;;;;6.22;4.70;;;;;;;;;;5094643;28;20461;-71
2021/07/12 05:19:14;;;;;;;4.45;4.05;;;;;;;;;;5094771;28;20031;-71
2021/07/12 05:21:41;;;;;;;10.00;4.75;;;;;;;;;;5094755;28;20022;-71
2021/07/12 05:24:07;;;;;;;10.15;5.47;;;;;;;;;;5094598;28;20023;-70
2021/07/12 05:26:33;;;;;;;6.93;5.35;;;;;;;;;;5095370;28;20066;-71
2021/07/12 05:28:59;;;;;;;7.63;5.10;;;;;;;;;;5094786;28;20047;-71
2021/07/12 05:31:25;;;;;;;7.72;4.55;;;;;;;;;;5097615;28;20077;-72
2021/07/12 05:33:50;;;;;;;7.57;4.55;;;;;;;;;;5094573;28;20082;-72
2021/07/12 05:36:16;;;;;;;7.38;5.30;;;;;;;;;;5094359;28;20149;-71
2021/07/12 05:38:42;;;;;;;6.95;4.97;;;;;;;;;;5094400;28;20077;-71
2021/07/12 05:41:08;;;;;;;5.47;4.53;;;;;;;;;;5093357;28;20031;-71
2021/07/12 05:43:34;;;;;;;8.60;5.20;;;;;;;;;;5094105;28;20380;-71
2021/07/12 05:46:00;;;;;;;8.48;4.95;;;;;;;;;;5090913;28;20036;-71
2021/07/12 05:48:25;;;;;;;6.47;5.00;;;;;;;;;;5084715;28;20058;-70
2021/07/12 05:50:51;;;;;;;6.70;4.70;;;;;;;;;;5085570;28;20113;-70
2021/07/12 05:53:17;;;;;;;9.57;5.85;;;;;;;;;;5093620;28;20027;-71
2021/07/12 05:55:43;;;;;;;5.05;4.47;;;;;;;;;;5094074;28;20020;-72
2021/07/12 05:58:09;;;;;;;8.90;5.15;;;;;;;;;;5094015;28;20103;-70
2021/07/12 06:00:35;;;;;;;6.10;4.45;;;;;;;;;;5093815;28;20052;-70
2021/07/12 06:03:00;;;;;;;7.00;4.88;;;;;;;;;;5094266;28;20009;-70
2021/07/12 06:05:26;;;;;;;6.38;5.28;;;;;;;;;;5079822;28;20515;-71
2021/07/12 06:07:52;;;;;;;7.60;4.97;;;;;;;;;;5072779;28;20054;-72
2021/07/12 06:10:17;;;;;;;5.38;4.18;;;;;;;;;;5073055;28;20063;-72
2021/07/12 06:12:43;;;;;;;9.55;4.70;;;;;;;;;;5072651;28;20025;-71
2021/07/12 06:15:09;;;;;;;6.80;4.22;;;;;;;;;;5071533;28;20027;-71
2021/07/12 06:17:35;;;;;;;6.30;4.43;;;;;;;;;;5084776;28;20495;-69
2021/07/12 06:20:25;;;;;;;6.78;3.83;;;;;;;;;;5073706;28;20012;-74
2021/07/12 06:22:56;;;;;;;6.43;4.53;;;;;;;;;;5052840;28;20025;-73
2021/07/12 06:25:39;;;;;;;7.57;4.57;;;;;;;;;;5054781;28;20029;-70
2021/07/12 06:28:05;;;;;;;8.05;4.65;;;;;;;;;;5071240;28;20058;-68
2021/07/12 06:30:30;;;;;;;7.10;4.63;;;;;;;;;;5071523;28;20099;-67
2021/07/12 06:32:56;;;;;;;7.40;4.47;;;;;;;;;;5069548;28;20054;-67
2021/07/12 06:35:23;;;;;;;7.68;4.68;;;;;;;;;;5069718;28;20515;-67
2021/07/12 06:37:48;;;;;;;8.80;4.50;;;;;;;;;;5071451;28;20039;-69
2021/07/12 06:40:15;;;;;;;6.68;5.20;;;;;;;;;;5069546;28;20117;-67
2021/07/12 06:42:40;;;;;;;5.88;4.80;;;;;;;;;;5070009;28;20473;-73
2021/07/12 06:45:06;;;;;;;8.70;5.15;;;;;;;;;;5070992;28;20020;-67
2021/07/12 06:47:42;;;;;;;6.30;4.85;;;;;;;;;;5070035;28;20048;-66
2021/07/12 06:50:22;;;;;;;12.45;5.20;;;;;;;;;;5071071;28;20060;-69
2021/07/12 06:52:55;;;;;;;5.55;4.75;;;;;;;;;;5071571;28;20032;-69
2021/07/12 06:55:25;;;;;;;6.50;5.07;;;;;;;;;;5071471;28;20385;-69
2021/07/12 06:57:51;;;;;;;9.35;5.43;;;;;;;;;;5070848;28;20044;-68
2021/07/12 07:00:17;;;;;;;5.55;4.80;;;;;;;;;;5070882;28;20412;-69
2021/07/12 07:02:57;;;;;;;8.93;5.18;;;;;;;;;;5071790;28;20022;-69
2021/07/12 07:05:26;;;;;;;16.13;6.20;;;;;;;;;;5071771;28;20024;-69
2021/07/12 07:07:51;;;;;;;8.65;5.25;;;;;;;;;;5071831;28;20024;-69
2021/07/12 07:10:17;;;;;;;10.57;5.55;;;;;;;;;;5070055;28;20029;-69
2021/07/12 07:12:42;;;;;;;11.10;4.90;;;;;;;;;;5069070;28;20052;-69
2021/07/12 07:15:08;;;;;;;6.40;4.40;;;;;;;;;;5070763;28;20020;-69
2021/07/12 07:17:34;;;;;;;6.43;4.80;;;;;;;;;;5071449;28;20016;-69
2021/07/12 07:20:00;;;;;;;5.10;4.05;;;;;;;;;;5068538;28;20020;-70
2021/07/12 07:22:25;;;;;;;6.70;4.75;;;;;;;;;;5070997;28;20033;-70
2021/07/12 07:24:51;;;;;;;6.15;4.78;;;;;;;;;;5071511;28;20009;-70
2021/07/12 07:27:17;;;;;;;7.15;5.13;;;;;;;;;;5070488;28;20523;-70
2021/07/12 07:29:43;;;;;;;9.48;5.72;;;;;;;;;;5069132;28;20100;-67
2021/07/12 07:32:09;;;;;;;6.65;5.18;;;;;;;;;;5071183;28;20171;-67
2021/07/12 07:34:35;;;;;;;8.45;6.07;;;;;;;;;;5070341;28;20020;-67
2021/07/12 07:37:00;;;;;;;6.57;4.53;;;;;;;;;;5069698;28;20397;-67
2021/07/12 07:39:26;;;;;;;5.63;4.97;;;;;;;;;;5070224;28;20228;-67
2021/07/12 07:41:53;;;;;;;7.00;5.47;;;;;;;;;;5073910;28;20028;-66
2021/07/12 07:44:18;;;;;;;13.15;4.95;;;;;;;;;;5074531;28;20450;-67
2021/07/12 07:46:44;;;;;;;8.25;4.80;;;;;;;;;;5075002;28;20040;-67
2021/07/12 07:49:11;;;;;;;9.27;5.72;;;;;;;;;;5075084;28;20107;-66
2021/07/12 07:51:37;;;;;;;7.35;4.80;;;;;;;;;;5075595;28;20025;-67
2021/07/12 07:54:04;;;;;;;8.25;5.20;;;;;;;;;;5078341;28;20032;-67
2021/07/12 07:56:29;;;;;;;7.07;5.82;;;;;;;;;;5075469;28;20394;-67
2021/07/12 07:58:55;;;;;;;8.70;5.53;;;;;;;;;;5074115;28;20016;-67
2021/07/12 08:01:20;;;;;;;9.38;6.40;;;;;;;;;;5072853;28;20401;-67
2021/07/12 08:03:47;;;;;;;13.13;5.65;;;;;;;;;;5074947;28;20028;-67
2021/07/12 08:06:12;;;;;;;16.23;6.55;;;;;;;;;;5075257;28;20008;-66
2021/07/12 08:08:38;;;;;;;12.48;6.53;;;;;;;;;;5075146;28;20031;-67
2021/07/12 08:11:05;;;;;;;10.55;5.88;;;;;;;;;;5074611;28;20120;-67
2021/07/12 08:13:30;;;;;;;11.57;6.60;;;;;;;;;;5074353;28;20035;-66
2021/07/12 08:15:55;;;;;;;14.68;6.70;;;;;;;;;;5063796;28;20017;-66
2021/07/12 08:18:22;;;;;;;9.85;5.85;;;;;;;;;;5054539;28;20020;-66
2021/07/12 08:20:48;;;;;;;11.52;6.65;;;;;;;;;;5054769;28;20040;-66
2021/07/12 08:23:14;;;;;;;7.22;6.05;;;;;;;;;;5055253;28;20043;-67
2021/07/12 08:25:40;;;;;;;12.57;6.18;;;;;;;;;;5054702;28;20533;-68
2021/07/12 08:28:06;;;;;;;13.18;6.18;;;;;;;;;;5054909;28;20116;-67
2021/07/12 08:30:32;;;;;;;9.68;6.50;;;;;;;;;;5054605;28;20103;-66
2021/07/12 08:32:58;;;;;;;8.80;5.65;;;;;;;;;;5054738;28;20040;-66
2021/07/12 08:35:24;;;;;;;6.97;5.35;;;;;;;;;;5054925;28;20040;-66
2021/07/12 08:37:50;;;;;;;10.40;6.38;;;;;;;;;;5054591;28;20558;-68
2021/07/12 08:40:16;;;;;;;9.68;5.68;;;;;;;;;;5054166;28;20385;-65
2021/07/12 08:42:41;;;;;;;7.07;5.60;;;;;;;;;;5054685;28;20358;-65
2021/07/12 08:45:07;;;;;;;7.47;6.00;;;;;;;;;;5051792;28;20029;-68
2021/07/12 08:47:33;;;;;;;8.48;5.70;;;;;;;;;;5072195;28;20052;-69
2021/07/12 08:49:59;;;;;;;11.50;5.80;;;;;;;;;;5073486;28;20020;-68
2021/07/12 08:52:25;;;;;;;11.45;5.80;;;;;;;;;;5073018;28;20032;-67
2021/07/12 08:54:50;;;;;;;8.38;4.82;;;;;;;;;;5073871;28;20028;-68
2021/07/12 08:57:16;;;;;;;8.10;5.30;;;;;;;;;;5074113;28;20409;-69
2021/07/12 08:59:42;;;;;;;9.35;5.47;;;;;;;;;;5073706;28;20017;-69
2021/07/12 09:02:12;;;;;;;9.77;5.10;;;;;;;;;;5073749;28;20029;-68
2021/07/12 09:04:39;;;;;;;9.98;5.43;;;;;;;;;;5073738;28;20032;-67
2021/07/12 09:07:06;;;;;;;8.57;5.30;;;;;;;;;;5072901;28;20074;-67
2021/07/12 09:09:32;;;;;;;12.82;5.57;;;;;;;;;;5071275;28;20497;-65
2021/07/12 09:12:08;;;;;;;15.38;5.47;;;;;;;;;;5073511;28;20036;-65
2021/07/12 09:14:34;;;;;;;8.27;5.18;;;;;;;;;;5074247;28;20021;-66
2021/07/12 09:17:01;;;;;;;13.98;5.00;;;;;;;;;;5073885;28;20032;-66
2021/07/12 09:19:28;;;;;;;5.28;4.78;;;;;;;;;;5073234;28;20025;-66
2021/07/12 09:22:01;;;;;;;8.50;5.63;;;;;;;;;;5073530;28;20162;-66
2021/07/12 09:24:49;;;;;;;13.10;5.45;;;;;;;;;;5072732;28;20037;-66
2021/07/12 09:27:20;;;;;;;6.53;5.05;;;;;;;;;;5073378;28;20377;-67
2021/07/12 09:29:47;;;;;;;11.10;5.30;;;;;;;;;;5072528;28;20100;-68
2021/07/12 09:32:14;;;;;;;9.13;5.45;;;;;;;;;;5072880;28;20029;-66
2021/07/12 09:34:40;;;;;;;25.50;5.85;;;;;;;;;;5072752;28;20024;-66
2021/07/12 09:37:06;;;;;;;12.18;5.40;;;;;;;;;;5072929;28;20061;-65
2021/07/12 09:39:34;;;;;;;14.82;5.70;;;;;;;;;;5072665;28;20017;-66
2021/07/12 09:42:02;;;;;;;11.13;5.32;;;;;;;;;;5073474;28;20424;-64
2021/07/12 09:44:28;;;;;;;12.18;4.82;;;;;;;;;;5073074;28;20121;-66
2021/07/12 09:46:55;;;;;;;9.30;5.38;;;;;;;;;;5073099;28;20021;-66
2021/07/12 09:49:24;;;;;;;14.32;5.53;;;;;;;;;;5072202;28;20040;-67
2021/07/12 09:51:54;;;;;;;14.43;5.03;;;;;;;;;;5072772;28;20064;-66
2021/07/12 09:54:21;;;;;;;9.48;5.57;;;;;;;;;;5073046;28;20024;-66
2021/07/12 09:56:48;;;;;;;9.82;5.20;;;;;;;;;;5073484;28;20505;-65
2021/07/12 09:59:14;;;;;;;11.68;5.28;;;;;;;;;;5072466;28;20107;-65
2021/07/12 10:01:46;;;;;;;14.00;5.20;;;;;;;;;;5072595;28;20036;-66
2021/07/12 10:04:12;;;;;;;8.52;4.88;;;;;;;;;;5072419;28;20016;-66
2021/07/12 10:06:38;;;;;;;13.75;5.13;;;;;;;;;;5073002;28;20017;-66
2021/07/12 10:09:03;;;;;;;17.42;5.55;;;;;;;;;;5072424;28;20021;-65
2021/07/12 10:11:30;;;;;;;12.30;5.55;;;;;;;;;;5072384;28;20043;-66
2021/07/12 10:13:57;;;;;;;8.38;4.18;;;;;;;;;;5072693;28;20012;-66
2021/07/12 10:16:23;;;;;;;11.82;4.75;;;;;;;;;;5075983;28;20507;-66
2021/07/12 10:18:48;;;;;;;12.07;5.47;;;;;;;;;;5072320;28;20013;-66
2021/07/12 10:21:14;;;;;;;13.30;5.95;;;;;;;;;;5071497;28;20037;-65
2021/07/12 10:23:39;;;;;;;10.07;5.20;;;;;;;;;;5072466;28;20023;-66
2021/07/12 10:26:05;;;;;;;12.40;5.60;;;;;;;;;;5072706;28;20154;-65
2021/07/12 10:28:37;;;;;;;10.70;5.65;;;;;;;;;;5071925;28;20119;-65
2021/07/12 10:31:16;;;;;;;11.13;5.78;;;;;;;;;;5071621;28;20422;-65
2021/07/12 10:33:42;;;;;;;10.77;6.05;;;;;;;;;;5072614;28;20012;-66
2021/07/12 10:36:07;;;;;;;9.98;5.90;;;;;;;;;;5072281;28;20532;-66
2021/07/12 10:38:43;;;;;;;15.60;6.55;;;;;;;;;;5072011;28;20473;-66
2021/07/12 10:41:28;;;;;;;7.97;5.88;;;;;;;;;;5071715;28;20024;-66
2021/07/12 10:43:54;;;;;;;10.40;6.65;;;;;;;;;;5072322;28;20062;-67
2021/07/12 10:46:31;;;;;;;9.43;5.72;;;;;;;;;;5072229;28;20369;-68
2021/07/12 10:48:57;;;;;;;14.38;5.63;;;;;;;;;;5072174;28;20020;-67
2021/07/12 10:51:24;;;;;;;12.65;5.57;;;;;;;;;;5068204;28;20028;-70
2021/07/12 10:53:57;;;;;;;8.32;5.35;;;;;;;;;;5070044;28;20025;-67
2021/07/12 10:56:24;;;;;;;8.05;4.82;;;;;;;;;;5071483;28;20135;-68
2021/07/12 10:58:50;;;;;;;12.25;5.18;;;;;;;;;;5071540;28;20031;-68
2021/07/12 11:01:16;;;;;;;8.55;5.53;;;;;;;;;;5070712;28;20044;-68
2021/07/12 11:03:48;;;;;;;8.77;4.95;;;;;;;;;;5070682;28;20030;-68
2021/07/12 11:06:21;;;;;;;9.50;4.93;;;;;;;;;;5070992;28;20035;-69
2021/07/12 11:08:48;;;;;;;6.88;4.85;;;;;;;;;;5071596;28;20028;-67
2021/07/12 11:11:27;;;;;;;12.20;5.68;;;;;;;;;;5070965;28;20017;-66
2021/07/12 11:14:00;;;;;;;7.50;5.55;;;;;;;;;;5070544;28;20118;-67
2021/07/12 11:16:47;;;;;;;9.00;5.80;;;;;;;;;;5071094;28;20009;-67
2021/07/12 11:19:19;;;;;;;9.45;5.97;;;;;;;;;;5069907;28;20015;-69
2021/07/12 11:21:45;;;;;;;8.63;6.03;;;;;;;;;;5070342;28;20078;-69
2021/07/12 11:24:17;;;;;;;8.77;5.63;;;;;;;;;;5072585;28;20025;-70
2021/07/12 11:26:44;;;;;;;8.65;5.18;;;;;;;;;;5071745;28;20489;-73
2021/07/12 11:29:17;;;;;;;16.67;6.13;;;;;;;;;;5070836;28;20070;-69
2021/07/12 11:31:47;;;;;;;11.90;5.53;;;;;;;;;;5070258;28;20032;-68
2021/07/12 11:34:14;;;;;;;8.35;5.68;;;;;;;;;;5071608;28;20060;-68
2021/07/12 11:36:46;;;;;;;19.95;6.63;;;;;;;;;;5071150;28;20120;-63
2021/07/12 11:39:13;;;;;;;10.25;5.53;;;;;;;;;;5070211;28;20449;-74
2021/07/12 11:41:39;;;;;;;9.70;5.47;;;;;;;;;;5069722;28;20024;-74
2021/07/12 11:44:06;;;;;;;9.57;5.50;;;;;;;;;;5070822;28;20046;-76
2021/07/12 11:46:32;;;;;;;9.20;5.28;;;;;;;;;;5071126;28;20021;-75
2021/07/12 11:49:04;;;;;;;5.63;4.85;;;;;;;;;;5071302;28;20081;-75
2021/07/12 11:51:30;;;;;;;16.63;5.68;;;;;;;;;;5069821;28;20042;-73
2021/07/12 11:53:56;;;;;;;14.40;6.72;;;;;;;;;;5071759;28;20516;-73
2021/07/12 11:56:21;;;;;;;9.95;5.88;;;;;;;;;;5072484;28;20028;-75
2021/07/12 11:58:57;;;;;;;13.20;5.78;;;;;;;;;;5071038;28;20069;-74
2021/07/12 12:01:23;;;;;;;6.05;5.40;;;;;;;;;;5070418;28;20566;-75
2021/07/12 12:03:58;;;;;;;7.93;5.20;;;;;;;;;;5071953;28;20032;-75
2021/07/12 12:06:24;;;;;;;11.73;4.80;;;;;;;;;;5070178;28;20051;-69
2021/07/12 12:09:04;;;;;;;11.98;5.05;;;;;;;;;;5071160;28;20052;-70
2021/07/12 12:11:30;;;;;;;11.15;4.53;;;;;;;;;;5069542;28;20012;-67
2021/07/12 12:13:56;;;;;;;4.90;4.40;;;;;;;;;;5070783;28;20070;-67
2021/07/12 12:16:26;;;;;;;6.90;5.15;;;;;;;;;;5070977;28;20380;-66
2021/07/12 12:18:53;;;;;;;6.57;4.63;;;;;;;;;;5070771;28;20032;-66
2021/07/12 12:21:19;;;;;;;12.02;5.25;;;;;;;;;;5069726;28;20033;-66
2021/07/12 12:23:45;;;;;;;6.82;5.13;;;;;;;;;;5071243;28;20037;-67
2021/07/12 12:26:17;;;;;;;6.53;4.65;;;;;;;;;;5070868;28;20013;-68
2021/07/12 12:28:48;;;;;;;10.05;5.30;;;;;;;;;;5073904;28;20099;-67
2021/07/12 12:31:18;;;;;;;8.20;4.93;;;;;;;;;;5073780;28;20435;-67
2021/07/12 12:33:45;;;;;;;7.70;5.32;;;;;;;;;;5074617;28;20013;-68
2021/07/12 12:36:17;;;;;;;6.03;4.82;;;;;;;;;;5073941;28;20009;-66
2021/07/12 12:38:59;;;;;;;9.25;5.50;;;;;;;;;;5075618;28;20017;-68
2021/07/12 12:41:25;;;;;;;7.90;5.07;;;;;;;;;;5073239;28;20051;-69
2021/07/12 12:44:10;;;;;;;12.52;5.75;;;;;;;;;;5073766;28;20066;-68
2021/07/12 12:46:36;;;;;;;8.63;5.50;;;;;;;;;;5074449;28;20042;-66
2021/07/12 12:49:16;;;;;;;9.90;5.43;;;;;;;;;;5074221;28;20036;-68
2021/07/12 12:52:01;;;;;;;10.05;5.57;;;;;;;;;;5071633;28;20571;-67
2021/07/12 12:54:30;;;;;;;5.93;5.30;;;;;;;;;;5073730;28;20024;-66
2021/07/12 12:56:56;;;;;;;7.90;5.10;;;;;;;;;;5074496;28;20473;-66
2021/07/12 12:59:35;;;;;;;7.72;5.32;;;;;;;;;;5073142;28;20431;-68
2021/07/12 13:02:02;;;;;;;9.40;5.38;;;;;;;;;;5073057;28;20045;-67
2021/07/12 13:04:39;;;;;;;12.45;5.07;;;;;;;;;;5071362;28;20037;-67
2021/07/12 13:07:04;;;;;;;6.20;5.22;;;;;;;;;;5073613;28;20100;-67
2021/07/12 13:09:31;;;;;;;8.48;5.38;;;;;;;;;;5073444;28;20557;-66
2021/07/12 13:12:13;;;;;;;7.15;4.95;;;;;;;;;;5072591;28;20037;-66
2021/07/12 13:14:42;;;;;;;7.30;4.80;;;;;;;;;;5071559;28;20021;-67
2021/07/12 13:17:09;;;;;;;9.95;4.95;;;;;;;;;;5073503;28;20013;-64
2021/07/12 13:19:35;;;;;;;9.27;5.85;;;;;;;;;;5072877;28;20036;-66
2021/07/12 13:22:01;;;;;;;10.20;6.00;;;;;;;;;;5073979;28;20025;-68
2021/07/12 13:24:39;;;;;;;8.38;5.05;;;;;;;;;;5072749;28;20039;-66
2021/07/12 13:27:04;;;;;;;10.52;5.35;;;;;;;;;;5073125;28;20104;-67
2021/07/12 13:29:31;;;;;;;12.02;6.10;;;;;;;;;;5072879;28;20108;-68
2021/07/12 13:31:56;;;;;;;6.05;4.70;;;;;;;;;;5073342;28;20059;-66
2021/07/12 13:34:22;;;;;;;7.57;5.13;;;;;;;;;;5073085;28;20012;-67
2021/07/12 13:36:48;;;;;;;9.57;5.07;;;;;;;;;;5072974;28;20103;-65
2021/07/12 13:39:14;;;;;;;6.45;5.00;;;;;;;;;;5072472;28;20493;-66
2021/07/12 13:41:39;;;;;;;13.77;5.90;;;;;;;;;;5072692;28;20047;-68
2021/07/12 13:44:05;;;;;;;82.38;12.02;;;;;;;;;;5073264;28;20031;-69
2021/07/12 13:46:30;;;;;;;13.15;5.85;;;;;;;;;;5072924;28;20016;-66
2021/07/12 13:48:56;;;;;;;9.70;4.90;;;;;;;;;;5072954;28;20067;-67
2021/07/12 13:51:23;;;;;;;12.80;6.68;;;;;;;;;;5072408;28;20374;-70
2021/07/12 13:53:49;;;;;;;11.50;6.13;;;;;;;;;;5071750;28;20400;-70
2021/07/12 13:56:14;;;;;;;7.80;6.10;;;;;;;;;;5072442;28;20104;-68
2021/07/12 13:58:40;;;;;;;14.40;6.47;;;;;;;;;;5072908;28;20020;-72
2021/07/12 14:01:06;;;;;;;7.80;6.13;;;;;;;;;;5072436;28;20401;-69
2021/07/12 14:03:31;;;;;;;12.52;6.72;;;;;;;;;;5072785;28;20017;-69
2021/07/12 14:05:57;;;;;;;7.70;6.25;;;;;;;;;;5072728;28;20023;-72
2021/07/12 14:08:22;;;;;;;10.85;6.45;;;;;;;;;;5072615;28;20020;-70
2021/07/12 14:10:49;;;;;;;9.93;6.93;;;;;;;;;;5071499;28;20150;-70
2021/07/12 14:13:14;;;;;;;9.05;6.30;;;;;;;;;;5072244;28;20024;-69
2021/07/12 14:15:40;;;;;;;11.63;6.10;;;;;;;;;;5071671;28;20016;-71
2021/07/12 14:18:06;;;;;;;10.30;6.68;;;;;;;;;;5072286;28;20028;-72
2021/07/12 14:20:31;;;;;;;9.18;6.00;;;;;;;;;;5071317;28;20063;-72
2021/07/12 14:22:57;;;;;;;10.57;5.55;;;;;;;;;;5072757;28;20111;-74
2021/07/12 14:25:23;;;;;;;9.52;5.95;;;;;;;;;;5072944;28;20543;-72
2021/07/12 14:27:49;;;;;;;15.18;6.65;;;;;;;;;;5072851;28;20120;-71
2021/07/12 14:30:16;;;;;;;12.10;5.78;;;;;;;;;;5072976;28;20020;-69
2021/07/12 14:32:43;;;;;;;11.98;7.38;;;;;;;;;;5072599;28;20132;-68
2021/07/12 14:35:09;;;;;;;10.20;6.45;;;;;;;;;;5073062;28;20362;-68
2021/07/12 14:37:35;;;;;;;9.05;6.60;;;;;;;;;;5073039;28;20024;-69
2021/07/12 14:40:02;;;;;;;7.43;6.30;;;;;;;;;;5072751;28;20028;-69
2021/07/12 14:42:28;;;;;;;15.73;6.28;;;;;;;;;;5071999;28;20495;-68
2021/07/12 14:44:54;;;;;;;8.75;6.32;;;;;;;;;;5072830;28;20021;-69